Time;durP1;ratioP1;P1;durP2;ratioP2;P2;SDS_P1;SDS_P2;PMS_P1;PMS_P2;Temp;Humidity;BMP_temperature;BMP_pressure;BME280_temperature;BME280_humidity;BME280_pressure;Samples;Min_cycle;Max_cycle;Signal;HPM_P1;HPM_P2
2021/04/06 00:00:23;;;;;;;6.72;1.70;;;3.30;99.90;;;;;;10518233;28;20047;-46
2021/04/06 00:05:50;;;;;;;1.05;0.50;;;3.30;99.90;;;;;;10522549;28;20040;-46
2021/04/06 00:11:12;;;;;;;8.40;0.68;;;3.30;99.90;;;;;;10520339;28;20089;-46
2021/04/06 00:16:34;;;;;;;2.55;0.57;;;3.10;99.90;;;;;;10519594;28;20527;-46
2021/04/06 00:22:00;;;;;;;3.67;0.55;;;3.10;99.90;;;;;;10521062;28;20043;-47
2021/04/06 00:27:30;;;;;;;8.30;0.77;;;3.10;99.90;;;;;;10520061;28;20411;-46
2021/04/06 00:33:01;;;;;;;10.95;0.63;;;3.00;99.90;;;;;;10522147;28;20405;-46
2021/04/06 00:38:25;;;;;;;3.50;0.85;;;3.00;99.90;;;;;;10522246;28;20054;-46
2021/04/06 00:43:47;;;;;;;6.32;0.47;;;3.10;99.90;;;;;;10523734;28;20024;-46
2021/04/06 00:49:11;;;;;;;1.40;0.55;;;3.30;99.90;;;;;;10519452;28;20036;-46
2021/04/06 00:54:34;;;;;;;0.73;0.38;;;3.30;99.90;;;;;;10522592;28;20515;-46
2021/04/06 01:00:17;;;;;;;3.03;1.15;;;3.30;99.90;;;;;;10527520;28;20051;-46
2021/04/06 01:06:17;;;;;;;0.55;0.25;;;3.30;99.90;;;;;;10516354;28;20490;-46
2021/04/06 01:11:39;;;;;;;2.17;1.15;;;3.30;99.90;;;;;;10354966;28;20053;-46
2021/04/06 01:17:01;;;;;;;3.28;0.50;;;3.30;99.90;;;;;;10507445;28;20079;-46
2021/04/06 01:22:22;;;;;;;1.48;0.70;;;3.20;99.90;;;;;;10519849;28;20358;-46
2021/04/06 01:27:43;;;;;;;4.78;0.88;;;3.10;99.90;;;;;;10520877;28;20047;-46
2021/04/06 01:33:04;;;;;;;0.50;0.10;;;3.20;99.90;;;;;;10521429;28;20119;-46
2021/04/06 01:38:27;;;;;;;3.30;0.60;;;3.10;99.90;;;;;;10523810;28;20089;-46
2021/04/06 01:43:50;;;;;;;0.10;0.00;;;3.10;99.90;;;;;;10524191;28;20336;-46
2021/04/06 01:49:16;;;;;;;0.65;0.30;;;3.00;99.90;;;;;;10524330;28;20479;-46
2021/04/06 01:54:39;;;;;;;0.38;0.28;;;3.00;99.90;;;;;;10524106;28;20479;-46
2021/04/06 02:00:17;;;;;;;1.42;0.20;;;2.90;99.90;;;;;;10524743;28;20511;-46
2021/04/06 02:05:38;;;;;;;1.08;0.35;;;2.80;99.90;;;;;;10523617;28;20514;-46
2021/04/06 02:10:59;;;;;;;1.75;0.20;;;2.90;99.90;;;;;;10532229;28;20415;-46
2021/04/06 02:16:20;;;;;;;0.57;0.10;;;3.00;99.90;;;;;;10532040;28;20046;-46
2021/04/06 02:22:03;;;;;;;0.20;0.15;;;3.00;99.90;;;;;;10517644;28;20044;-46
2021/04/06 02:27:34;;;;;;;1.65;0.40;;;2.80;99.90;;;;;;10531116;28;20043;-46
2021/04/06 02:33:00;;;;;;;4.50;0.30;;;2.60;99.90;;;;;;10527857;28;20077;-46
2021/04/06 02:38:21;;;;;;;2.40;0.40;;;2.50;99.90;;;;;;10529480;28;20042;-46
2021/04/06 02:43:50;;;;;;;1.27;0.82;;;2.50;99.90;;;;;;10523462;28;20033;-46
2021/04/06 02:49:11;;;;;;;0.43;0.10;;;2.60;99.90;;;;;;10530787;28;20421;-46
2021/04/06 02:54:32;;;;;;;1.83;0.47;;;2.60;99.90;;;;;;10529600;28;20093;-46
2021/04/06 02:59:53;;;;;;;0.90;0.10;;;2.50;99.90;;;;;;10529310;28;20272;-46
2021/04/06 03:05:30;;;;;;;1.38;0.28;;;2.50;99.90;;;;;;10529377;28;20036;-46
2021/04/06 03:10:55;;;;;;;0.93;0.10;;;2.40;99.90;;;;;;10526280;28;20135;-46
2021/04/06 03:16:16;;;;;;;7.68;0.43;;;2.30;99.90;;;;;;10527173;28;20494;-46
2021/04/06 03:21:38;;;;;;;0.15;0.10;;;2.30;99.90;;;;;;10527452;28;20126;-46
2021/04/06 03:27:03;;;;;;;1.65;0.20;;;2.20;99.90;;;;;;10525932;28;20040;-46
2021/04/06 03:32:25;;;;;;;0.05;0.03;;;2.20;99.90;;;;;;10530684;27;20466;-46
2021/04/06 03:37:46;;;;;;;1.65;0.25;;;2.20;99.90;;;;;;10524143;28;20040;-46
2021/04/06 03:43:13;;;;;;;2.03;0.20;;;2.50;99.90;;;;;;10524509;28;20522;-46
2021/04/06 03:48:36;;;;;;;0.98;0.15;;;2.50;99.90;;;;;;10523116;28;20032;-46
2021/04/06 03:53:57;;;;;;;3.42;0.45;;;2.50;99.90;;;;;;10521686;28;20035;-46
2021/04/06 03:59:20;;;;;;;0.65;0.20;;;2.50;99.90;;;;;;10526117;28;20043;-46
2021/04/06 04:04:41;;;;;;;0.65;0.25;;;2.40;99.90;;;;;;10528949;28;20487;-46
2021/04/06 04:10:07;;;;;;;1.27;0.40;;;2.20;99.90;;;;;;10524630;28;20080;-46
2021/04/06 04:15:28;;;;;;;0.05;0.00;;;2.10;99.90;;;;;;10527511;28;20050;-46
2021/04/06 04:20:49;;;;;;;0.50;0.00;;;2.10;99.90;;;;;;10524589;28;20070;-46
2021/04/06 04:26:10;;;;;;;1.10;0.25;;;2.30;99.90;;;;;;10524885;28;20559;-46
2021/04/06 04:31:31;;;;;;;0.75;0.17;;;2.30;99.90;;;;;;10522634;28;20483;-46
2021/04/06 04:36:52;;;;;;;0.45;0.10;;;2.30;99.90;;;;;;10524507;27;20059;-46
2021/04/06 04:42:13;;;;;;;2.50;0.80;;;2.10;99.90;;;;;;10524734;28;20077;-46
2021/04/06 04:47:34;;;;;;;2.92;0.30;;;2.10;99.90;;;;;;10522618;28;21265;-46
2021/04/06 04:52:55;;;;;;;0.60;0.10;;;2.20;99.90;;;;;;10522335;28;20059;-46
2021/04/06 04:58:16;;;;;;;1.00;0.17;;;2.30;99.90;;;;;;10502946;28;20094;-46
2021/04/06 05:03:37;;;;;;;0.38;0.10;;;2.30;99.90;;;;;;10479731;28;20459;-46
2021/04/06 05:08:59;;;;;;;2.55;0.30;;;2.20;99.90;;;;;;10478367;28;20499;-45
2021/04/06 05:14:20;;;;;;;0.00;0.00;;;2.20;99.90;;;;;;10481221;28;20040;-46
2021/04/06 05:19:42;;;;;;;0.43;0.10;;;2.00;99.90;;;;;;10479387;28;20039;-46
2021/04/06 05:25:04;;;;;;;0.00;0.00;;;1.90;99.90;;;;;;10478309;28;20044;-45
2021/04/06 05:30:26;;;;;;;0.10;0.00;;;1.90;99.90;;;;;;10479199;28;20105;-45
2021/04/06 05:35:47;;;;;;;0.00;0.00;;;2.20;99.90;;;;;;10480364;28;20036;-46
2021/04/06 05:41:08;;;;;;;0.10;0.03;;;2.10;99.90;;;;;;10484986;28;20124;-45
2021/04/06 05:46:31;;;;;;;0.85;0.30;;;2.00;99.90;;;;;;10484603;28;20121;-45
2021/04/06 05:51:54;;;;;;;0.40;0.30;;;2.00;99.90;;;;;;10486801;28;20041;-45
2021/04/06 05:57:15;;;;;;;3.33;0.55;;;1.90;99.90;;;;;;10485789;28;20350;-45
2021/04/06 06:02:37;;;;;;;4.47;0.52;;;2.10;99.90;;;;;;10470201;28;20047;-45
2021/04/06 06:07:58;;;;;;;0.10;0.00;;;2.20;99.90;;;;;;10469725;28;20062;-45
2021/04/06 06:13:24;;;;;;;0.00;0.00;;;2.50;99.90;;;;;;10479274;28;20051;-45
2021/04/06 06:19:00;;;;;;;0.40;0.28;;;2.50;99.90;;;;;;10481564;28;20527;-45
2021/04/06 06:24:33;;;;;;;2.10;0.40;;;2.40;99.90;;;;;;10474798;28;20118;-45
2021/04/06 06:29:54;;;;;;;0.65;0.10;;;2.30;99.90;;;;;;10482410;28;20453;-45
2021/04/06 06:35:34;;;;;;;1.08;0.10;;;2.90;99.90;;;;;;10476187;28;20037;-45
2021/04/06 06:41:08;;;;;;;0.63;0.20;;;2.90;99.90;;;;;;10477603;28;20530;-45
2021/04/06 06:46:31;;;;;;;2.45;0.30;;;3.10;99.90;;;;;;10481494;28;20032;-46
2021/04/06 06:51:52;;;;;;;0.20;0.10;;;3.40;99.90;;;;;;10476268;28;20040;-45
2021/04/06 06:57:15;;;;;;;0.25;0.10;;;3.30;99.90;;;;;;10483935;28;20051;-45
2021/04/06 07:02:37;;;;;;;0.73;0.30;;;2.90;99.90;;;;;;10525972;28;20404;-45
2021/04/06 07:08:09;;;;;;;2.53;1.02;;;2.60;99.90;;;;;;10526895;28;20080;-45
2021/04/06 07:13:33;;;;;;;2.58;1.15;;;2.50;99.90;;;;;;10527223;28;20032;-45
2021/04/06 07:18:55;;;;;;;1.63;0.20;;;2.40;99.90;;;;;;10529818;28;20032;-45
2021/04/06 07:24:21;;;;;;;0.17;0.05;;;2.80;99.90;;;;;;10526201;28;20088;-46
2021/04/06 07:29:42;;;;;;;2.97;0.68;;;3.30;99.90;;;;;;10521310;28;20036;-46
2021/04/06 07:35:03;;;;;;;0.15;0.10;;;3.50;99.90;;;;;;10517704;28;20043;-46
2021/04/06 07:40:26;;;;;;;0.40;0.20;;;3.60;99.90;;;;;;10519699;28;20160;-46
2021/04/06 07:45:47;;;;;;;0.82;0.10;;;3.50;99.90;;;;;;10518403;28;20044;-46
2021/04/06 07:51:25;;;;;;;2.65;1.20;;;3.60;99.90;;;;;;10516984;28;20105;-46
2021/04/06 07:56:50;;;;;;;0.40;0.38;;;3.90;99.90;;;;;;10517802;28;20040;-46
2021/04/06 08:02:11;;;;;;;2.25;0.40;;;4.10;99.90;;;;;;10519898;28;20584;-46
2021/04/06 08:07:34;;;;;;;5.93;0.82;;;4.20;99.90;;;;;;10518192;28;20135;-46
2021/04/06 08:12:58;;;;;;;1.50;0.50;;;4.50;99.90;;;;;;10518599;28;20035;-46
2021/04/06 08:18:23;;;;;;;0.85;0.30;;;4.60;99.90;;;;;;10518163;28;20044;-46
2021/04/06 08:23:48;;;;;;;1.08;0.40;;;4.90;99.90;;;;;;10517193;28;20127;-47
2021/04/06 08:29:24;;;;;;;0.38;0.10;;;5.30;99.90;;;;;;10516843;28;20054;-46
2021/04/06 08:34:50;;;;;;;1.30;0.30;;;5.50;99.90;;;;;;10508748;28;20571;-46
2021/04/06 08:40:11;;;;;;;0.50;0.22;;;5.50;99.90;;;;;;10517643;27;20399;-47
2021/04/06 08:45:32;;;;;;;0.03;0.03;;;5.50;99.90;;;;;;10504952;28;20032;-47
2021/04/06 08:50:53;;;;;;;0.00;0.00;;;5.30;99.90;;;;;;10519226;28;20054;-46
2021/04/06 08:56:17;;;;;;;0.50;0.20;;;5.40;99.90;;;;;;10516392;28;20051;-46
2021/04/06 09:01:39;;;;;;;2.40;0.20;;;5.80;99.90;;;;;;10523605;28;20059;-46
2021/04/06 09:07:00;;;;;;;4.57;0.40;;;5.70;99.90;;;;;;10519879;28;20184;-46
2021/04/06 09:12:23;;;;;;;0.52;0.10;;;5.40;99.90;;;;;;10511248;28;20598;-46
2021/04/06 09:17:44;;;;;;;0.45;0.15;;;5.20;99.90;;;;;;10516277;28;20070;-46
2021/04/06 09:23:06;;;;;;;0.75;0.30;;;5.70;99.90;;;;;;10518385;28;20025;-46
2021/04/06 09:28:27;;;;;;;0.70;0.20;;;6.40;99.90;;;;;;10503202;28;20028;-46
2021/04/06 09:33:48;;;;;;;0.32;0.05;;;6.40;99.90;;;;;;10513725;28;20077;-46
2021/04/06 09:39:12;;;;;;;1.83;0.52;;;6.00;99.90;;;;;;10517662;28;20520;-46
2021/04/06 09:44:37;;;;;;;2.03;0.30;;;5.50;99.90;;;;;;10520062;28;20055;-46
2021/04/06 09:49:59;;;;;;;0.45;0.17;;;4.80;99.90;;;;;;10515583;28;20055;-46
2021/04/06 09:55:21;;;;;;;0.17;0.10;;;4.40;99.90;;;;;;10513822;28;20044;-46
2021/04/06 10:00:45;;;;;;;5.45;1.27;;;4.70;99.90;;;;;;10517853;28;20113;-46
2021/04/06 10:06:08;;;;;;;0.55;0.30;;;5.30;99.90;;;;;;10517496;28;20056;-46
2021/04/06 10:11:29;;;;;;;0.32;0.20;;;6.30;99.90;;;;;;10514402;28;20047;-46
2021/04/06 10:16:58;;;;;;;1.25;0.40;;;7.10;99.90;;;;;;10512996;28;20043;-46
2021/04/06 10:22:19;;;;;;;;;;;6.40;99.90;;;;;;10521872;28;20159;-46
2021/04/06 10:27:42;;;;;;;0.52;0.03;;;5.60;99.90;;;;;;10519556;28;19959;-46
2021/04/06 10:33:18;;;;;;;0.68;0.10;;;5.40;99.90;;;;;;10516108;28;21912;-46
2021/04/06 10:38:40;;;;;;;3.88;0.13;;;5.80;99.90;;;;;;10523812;28;20455;-46
2021/04/06 10:44:03;;;;;;;0.32;0.08;;;6.90;99.90;;;;;;10527223;28;20570;-46
2021/04/06 10:49:24;;;;;;;0.00;0.00;;;7.90;99.90;;;;;;10529561;28;20502;-46
2021/04/06 10:54:51;;;;;;;0.73;0.10;;;8.50;99.90;;;;;;10519111;28;20491;-46
2021/04/06 11:00:32;;;;;;;2.80;0.20;;;9.10;99.90;;;;;;10528466;27;20164;-46
2021/04/06 11:05:53;;;;;;;0.55;0.10;;;9.10;99.90;;;;;;10522451;28;20047;-46
2021/04/06 11:11:20;;;;;;;2.10;0.22;;;8.40;99.90;;;;;;10519088;28;20052;-46
2021/04/06 11:16:42;;;;;;;0.43;0.00;;;6.80;99.90;;;;;;10519604;28;20612;-46
2021/04/06 11:22:11;;;;;;;1.58;0.40;;;5.60;99.90;;;;;;10525741;28;20054;-46
2021/04/06 11:27:31;;;;;;;1.08;0.55;;;4.90;99.90;;;;;;10523332;28;20532;-46
2021/04/06 11:32:52;;;;;;;8.63;0.20;;;4.50;99.90;;;;;;10516162;28;20055;-46
2021/04/06 11:38:15;;;;;;;3.00;0.13;;;5.90;99.90;;;;;;10524009;28;20071;-46
2021/04/06 11:43:36;;;;;;;0.20;0.08;;;7.90;99.90;;;;;;10523845;28;20036;-46
2021/04/06 11:48:57;;;;;;;1.02;0.13;;;9.60;99.90;;;;;;10524325;28;20651;-47
2021/04/06 11:54:19;;;;;;;1.17;0.28;;;10.50;99.90;;;;;;10517790;28;20056;-46
2021/04/06 11:59:40;;;;;;;0.25;0.10;;;11.10;99.90;;;;;;10502995;28;20127;-46
2021/04/06 12:05:02;;;;;;;3.60;0.40;;;10.10;99.90;;;;;;10481877;28;20043;-46
2021/04/06 12:10:23;;;;;;;2.22;1.15;;;9.70;99.90;;;;;;10488805;28;20776;-46
2021/04/06 12:15:44;;;;;;;1.70;0.40;;;8.10;99.90;;;;;;10459976;28;20055;-46
2021/04/06 12:21:08;;;;;;;6.78;1.02;;;7.00;99.90;;;;;;10483684;28;20028;-46
2021/04/06 12:26:29;;;;;;;0.90;0.40;;;6.70;99.90;;;;;;10482139;28;20045;-46
2021/04/06 12:31:50;;;;;;;0.30;0.10;;;6.60;99.90;;;;;;10472816;28;20123;-46
2021/04/06 12:37:11;;;;;;;2.75;0.20;;;5.90;99.90;;;;;;10481891;28;20056;-46
2021/04/06 12:42:32;;;;;;;1.17;0.10;;;5.90;99.90;;;;;;10485844;28;20040;-46
2021/04/06 12:47:53;;;;;;;0.32;0.13;;;7.70;99.90;;;;;;10481369;28;20090;-46
2021/04/06 12:53:14;;;;;;;0.10;0.00;;;7.90;99.90;;;;;;10479409;28;20447;-46
2021/04/06 12:58:35;;;;;;;1.38;0.13;;;7.00;99.90;;;;;;10492474;27;20739;-46
2021/04/06 13:03:56;;;;;;;1.13;0.25;;;6.20;99.90;;;;;;10513852;28;20043;-46
2021/04/06 13:09:17;;;;;;;10.40;0.40;;;6.10;99.90;;;;;;10528294;27;20024;-46
2021/04/06 13:14:38;;;;;;;0.15;0.03;;;7.00;99.90;;;;;;10527377;28;20051;-46
2021/04/06 13:19:59;;;;;;;0.85;0.10;;;8.30;99.90;;;;;;10518105;28;20121;-46
2021/04/06 13:25:21;;;;;;;1.23;0.15;;;9.10;99.90;;;;;;10518898;28;20465;-46
2021/04/06 13:30:42;;;;;;;0.85;0.10;;;9.00;99.90;;;;;;10524766;28;20040;-46
2021/04/06 13:36:04;;;;;;;0.63;0.10;;;9.30;99.90;;;;;;10519072;28;20047;-46
2021/04/06 13:41:27;;;;;;;0.13;0.10;;;8.90;99.90;;;;;;10524036;28;20043;-46
2021/04/06 13:46:48;;;;;;;0.63;0.10;;;9.00;99.90;;;;;;10523296;28;20067;-46
2021/04/06 13:52:09;;;;;;;0.22;0.05;;;8.50;99.90;;;;;;10526110;28;20059;-46
2021/04/06 13:57:31;;;;;;;0.20;0.10;;;7.80;99.90;;;;;;10521045;28;20710;-45
2021/04/06 14:02:52;;;;;;;0.40;0.10;;;7.30;99.90;;;;;;10521545;28;20062;-46
2021/04/06 14:08:13;;;;;;;0.85;0.22;;;6.50;99.90;;;;;;10525753;28;20633;-45
2021/04/06 14:13:34;;;;;;;0.20;0.10;;;6.70;99.90;;;;;;10522078;28;20036;-45
2021/04/06 14:18:56;;;;;;;0.50;0.17;;;7.30;99.90;;;;;;10532157;28;20032;-45
2021/04/06 14:24:17;;;;;;;0.30;0.13;;;6.90;99.90;;;;;;10530237;28;20476;-45
2021/04/06 14:29:38;;;;;;;0.88;0.25;;;6.70;99.90;;;;;;10514632;28;20040;-45
2021/04/06 14:34:59;;;;;;;0.57;0.20;;;6.50;99.90;;;;;;10528272;28;20130;-45
2021/04/06 14:40:20;;;;;;;0.25;0.10;;;6.30;99.90;;;;;;10531181;28;20407;-45
2021/04/06 14:45:44;;;;;;;0.03;0.03;;;6.30;99.90;;;;;;10529429;28;20097;-45
2021/04/06 14:51:06;;;;;;;0.30;0.08;;;6.10;99.90;;;;;;10526694;28;20563;-45
2021/04/06 14:56:28;;;;;;;1.85;0.40;;;6.20;99.90;;;;;;10519600;28;20062;-45
2021/04/06 15:01:51;;;;;;;0.08;0.08;;;6.60;99.90;;;;;;10526556;28;20794;-45
2021/04/06 15:07:11;;;;;;;3.72;0.50;;;6.70;99.90;;;;;;10529345;28;20063;-45
2021/04/06 15:12:36;;;;;;;0.38;0.03;;;6.60;99.90;;;;;;10527829;28;20028;-45
2021/04/06 15:17:57;;;;;;;0.55;0.38;;;6.30;99.90;;;;;;10520013;28;20081;-45
2021/04/06 15:23:27;;;;;;;0.10;0.10;;;5.80;99.90;;;;;;10522376;28;20514;-45
2021/04/06 15:28:48;;;;;;;0.10;0.00;;;5.30;99.90;;;;;;10537436;28;20710;-45
2021/04/06 15:34:10;;;;;;;0.00;0.00;;;5.00;99.90;;;;;;10523789;28;20051;-45
2021/04/06 15:39:35;;;;;;;0.22;0.10;;;5.00;99.90;;;;;;10530789;27;20046;-45
2021/04/06 15:44:58;;;;;;;0.85;0.32;;;5.20;99.90;;;;;;10523756;28;20983;-45
2021/04/06 15:50:24;;;;;;;0.10;0.10;;;5.40;99.90;;;;;;10520070;28;20032;-45
2021/04/06 15:55:45;;;;;;;1.88;0.00;;;5.80;99.90;;;;;;10510595;28;20036;-45
2021/04/06 16:01:07;;;;;;;4.05;0.30;;;6.00;99.90;;;;;;10520357;28;20692;-45
2021/04/06 16:06:28;;;;;;;2.55;0.30;;;6.00;99.90;;;;;;10520914;28;20040;-45
2021/04/06 16:11:50;;;;;;;0.55;0.20;;;6.00;99.90;;;;;;10522802;28;20040;-46
2021/04/06 16:17:13;;;;;;;1.00;0.17;;;5.80;99.90;;;;;;10519153;28;22562;-45
2021/04/06 16:22:35;;;;;;;0.77;0.20;;;5.60;99.90;;;;;;10529208;27;20332;-46
2021/04/06 16:27:57;;;;;;;0.20;0.10;;;5.30;99.90;;;;;;10527274;28;20093;-46
2021/04/06 16:33:27;;;;;;;0.20;0.10;;;4.70;99.90;;;;;;10523112;28;20495;-45
2021/04/06 16:38:48;;;;;;;0.00;0.00;;;4.10;99.90;;;;;;10525690;28;20063;-45
2021/04/06 16:44:09;;;;;;;1.75;1.13;;;4.20;99.90;;;;;;10526815;28;20221;-45
2021/04/06 16:49:30;;;;;;;2.53;0.45;;;4.30;99.90;;;;;;10524155;28;20567;-45
2021/04/06 16:54:51;;;;;;;0.43;0.25;;;4.40;99.90;;;;;;10523079;28;20035;-46
2021/04/06 17:00:13;;;;;;;1.27;0.25;;;4.20;99.90;;;;;;10499177;28;20067;-45
2021/04/06 17:05:35;;;;;;;0.20;0.10;;;4.20;99.90;;;;;;10477361;28;20040;-45
2021/04/06 17:10:56;;;;;;;2.38;1.08;;;4.10;99.90;;;;;;10476148;28;20399;-45
2021/04/06 17:16:17;;;;;;;0.85;0.30;;;4.10;99.90;;;;;;10477491;28;20154;-45
2021/04/06 17:21:38;;;;;;;1.75;0.17;;;4.00;99.90;;;;;;10474190;28;20047;-45
2021/04/06 17:26:59;;;;;;;0.35;0.10;;;3.90;99.90;;;;;;10478080;28;20553;-45
2021/04/06 17:32:20;;;;;;;0.98;0.20;;;3.80;99.90;;;;;;10476249;28;20083;-45
2021/04/06 17:37:45;;;;;;;1.55;0.43;;;3.80;99.90;;;;;;10455709;28;20036;-45
2021/04/06 17:43:09;;;;;;;1.27;0.47;;;3.60;99.90;;;;;;10460288;28;20040;-46
2021/04/06 17:48:30;;;;;;;0.45;0.17;;;3.60;99.90;;;;;;10451188;28;20540;-45
2021/04/06 17:53:51;;;;;;;0.20;0.10;;;3.60;99.90;;;;;;10453420;28;20581;-45
2021/04/06 17:59:12;;;;;;;0.80;0.10;;;3.60;99.90;;;;;;10466475;28;20036;-45
2021/04/06 18:04:34;;;;;;;0.10;0.03;;;3.30;99.90;;;;;;10500272;28;20036;-45
2021/04/06 18:09:55;;;;;;;1.40;0.52;;;2.90;99.90;;;;;;10490553;28;20039;-45
2021/04/06 18:15:17;;;;;;;1.23;0.15;;;2.80;99.90;;;;;;10499316;28;20126;-46
2021/04/06 18:20:39;;;;;;;0.00;0.00;;;2.70;99.90;;;;;;10497989;28;20507;-46
2021/04/06 18:26:00;;;;;;;3.53;0.20;;;2.80;99.90;;;;;;10501941;28;20040;-45
2021/04/06 18:31:23;;;;;;;0.50;0.13;;;2.70;99.90;;;;;;10501434;28;20032;-46
2021/04/06 18:36:45;;;;;;;0.55;0.10;;;2.70;99.90;;;;;;10494627;28;20044;-45
2021/04/06 18:42:06;;;;;;;2.05;0.25;;;2.60;99.90;;;;;;10495059;28;20530;-45
2021/04/06 18:47:27;;;;;;;0.10;0.10;;;2.60;99.90;;;;;;10498433;28;20060;-45
2021/04/06 18:52:48;;;;;;;0.10;0.10;;;2.60;99.90;;;;;;10499268;27;20363;-46
2021/04/06 18:58:10;;;;;;;0.47;0.20;;;2.50;99.90;;;;;;10501514;27;20501;-45
2021/04/06 19:03:31;;;;;;;3.63;0.30;;;2.50;99.90;;;;;;10462919;28;21904;-45
2021/04/06 19:08:53;;;;;;;1.02;0.20;;;2.50;99.90;;;;;;10462632;28;20043;-45
2021/04/06 19:14:14;;;;;;;3.00;0.10;;;2.60;99.90;;;;;;10466034;28;20273;-45
2021/04/06 19:19:35;;;;;;;0.10;0.00;;;2.60;99.90;;;;;;10456821;28;20036;-45
2021/04/06 19:24:56;;;;;;;1.77;0.40;;;2.60;99.90;;;;;;10471312;28;20484;-45
2021/04/06 19:30:18;;;;;;;0.80;0.20;;;2.60;99.90;;;;;;10477459;28;20450;-45
2021/04/06 19:35:40;;;;;;;0.25;0.08;;;2.60;99.90;;;;;;10466368;28;20040;-46
2021/04/06 19:41:02;;;;;;;0.32;0.10;;;2.60;99.90;;;;;;10460786;28;20444;-46
2021/04/06 19:46:23;;;;;;;0.75;0.30;;;2.70;99.90;;;;;;10467096;28;20047;-45
2021/04/06 19:51:44;;;;;;;0.90;0.17;;;2.60;99.90;;;;;;10477324;28;20044;-46
2021/04/06 19:57:06;;;;;;;8.68;0.40;;;2.70;99.90;;;;;;10484936;28;20044;-46
2021/04/06 20:02:27;;;;;;;1.20;0.30;;;2.60;99.90;;;;;;10468110;28;20048;-45
2021/04/06 20:07:48;;;;;;;0.70;0.20;;;2.50;99.90;;;;;;10483388;28;20032;-45
2021/04/06 20:13:13;;;;;;;0.25;0.08;;;2.60;99.90;;;;;;10484219;28;20071;-45
2021/04/06 20:18:36;;;;;;;0.52;0.52;;;2.60;99.90;;;;;;10480146;28;20051;-45
2021/04/06 20:23:57;;;;;;;0.28;0.10;;;2.70;99.90;;;;;;10476429;28;20044;-45
2021/04/06 20:29:20;;;;;;;8.27;0.38;;;2.60;99.90;;;;;;10480276;28;20036;-45
2021/04/06 20:34:41;;;;;;;0.08;0.08;;;2.60;99.90;;;;;;10471781;28;20261;-45
2021/04/06 20:40:07;;;;;;;0.50;0.10;;;2.60;99.90;;;;;;10479648;28;20097;-45
2021/04/06 20:45:28;;;;;;;0.30;0.15;;;2.50;99.90;;;;;;10482369;28;20039;-45
2021/04/06 20:50:50;;;;;;;0.68;0.25;;;2.50;99.90;;;;;;10479348;28;20041;-45
2021/04/06 20:56:11;;;;;;;1.92;0.30;;;2.40;99.90;;;;;;10480949;28;20118;-46
2021/04/06 21:01:32;;;;;;;5.03;0.20;;;2.30;99.90;;;;;;10479197;28;20048;-45
2021/04/06 21:06:53;;;;;;;0.38;0.00;;;2.30;99.90;;;;;;10482888;28;20029;-45
2021/04/06 21:12:14;;;;;;;1.95;0.57;;;2.20;99.90;;;;;;10479104;28;20047;-45
2021/04/06 21:17:35;;;;;;;1.30;0.47;;;2.20;99.90;;;;;;10479699;28;20468;-45
2021/04/06 21:22:56;;;;;;;0.75;0.30;;;2.20;99.90;;;;;;10479383;28;20484;-45
2021/04/06 21:28:17;;;;;;;0.03;0.00;;;2.30;99.90;;;;;;10476853;28;20051;-45
2021/04/06 21:33:38;;;;;;;0.20;0.10;;;2.40;99.90;;;;;;10481558;28;20066;-45
2021/04/06 21:38:59;;;;;;;1.92;0.40;;;2.40;99.90;;;;;;10483663;28;20032;-45
2021/04/06 21:44:21;;;;;;;2.03;0.38;;;2.60;99.90;;;;;;10482058;28;20714;-45
2021/04/06 21:49:42;;;;;;;0.63;0.20;;;2.60;99.90;;;;;;10477941;28;20047;-45
2021/04/06 21:55:03;;;;;;;0.00;0.00;;;2.50;99.90;;;;;;10480120;28;20043;-45
2021/04/06 22:00:25;;;;;;;6.68;0.43;;;2.30;99.90;;;;;;10506129;28;20464;-45
2021/04/06 22:05:46;;;;;;;2.85;0.52;;;2.30;99.90;;;;;;10519740;28;20036;-45
2021/04/06 22:11:07;;;;;;;1.20;0.40;;;2.50;99.90;;;;;;10526686;28;20406;-45
2021/04/06 22:16:28;;;;;;;4.57;0.47;;;2.40;99.90;;;;;;10521026;28;20399;-45
2021/04/06 22:21:50;;;;;;;0.45;0.15;;;2.30;99.90;;;;;;10527147;28;20701;-45
2021/04/06 22:27:13;;;;;;;6.43;0.30;;;2.30;99.90;;;;;;10525959;28;20344;-45
2021/04/06 22:32:35;;;;;;;3.15;0.08;;;2.60;99.90;;;;;;10530589;28;20505;-45
2021/04/06 22:37:56;;;;;;;0.22;0.08;;;2.30;99.90;;;;;;10528706;28;20044;-46
2021/04/06 22:43:17;;;;;;;2.45;0.20;;;2.30;99.90;;;;;;10528408;28;20496;-45
2021/04/06 22:48:40;;;;;;;11.15;0.32;;;2.20;99.90;;;;;;10526935;28;20036;-45
2021/04/06 22:54:01;;;;;;;1.20;0.20;;;2.20;99.90;;;;;;10528197;28;20042;-45
2021/04/06 22:59:22;;;;;;;0.30;0.20;;;2.10;99.90;;;;;;10530877;28;20130;-45
2021/04/06 23:04:43;;;;;;;1.30;0.10;;;2.00;99.90;;;;;;10526585;28;20431;-46
2021/04/06 23:10:07;;;;;;;0.00;0.00;;;1.90;99.90;;;;;;10528000;28;20478;-45
2021/04/06 23:15:28;;;;;;;2.13;0.13;;;2.00;99.90;;;;;;10530871;28;20161;-46
2021/04/06 23:20:49;;;;;;;0.90;0.52;;;1.90;99.90;;;;;;10528638;28;20661;-45
2021/04/06 23:26:10;;;;;;;1.55;0.32;;;1.90;99.90;;;;;;10532162;28;20127;-45
2021/04/06 23:31:31;;;;;;;1.45;0.45;;;2.10;99.90;;;;;;10527441;28;20024;-45
2021/04/06 23:36:52;;;;;;;4.45;1.08;;;2.20;99.90;;;;;;10528491;28;20046;-45
2021/04/06 23:42:14;;;;;;;0.40;0.17;;;2.30;99.90;;;;;;10527999;28;20031;-45
2021/04/06 23:47:35;;;;;;;0.52;0.10;;;2.30;99.90;;;;;;10525784;28;20077;-45
2021/04/06 23:52:57;;;;;;;1.65;0.30;;;2.40;99.90;;;;;;10527082;28;20059;-45
2021/04/06 23:58:18;;;;;;;0.00;0.00;;;2.40;99.90;;;;;;10525635;28;20510;-45
